Tug "trevor" — WCP6921 — position and weather

sailwx.info

Track history (hours):
 
Tides and Currents Weather Stations Pressure Air Temp Water Temp Dewpoint Dewpoint Depression Visibility Wind Speed Wind Dir Waves Ship Positions

Tug "trevor"

Owner: WEEKS MARINE, INC., CRANFORD, NJ. More information available from US FCC via Universal Licensing System and Coast Guard Vessel Documentation Center.

Last reported at 2017-Feb-25 00:33 UTC. Time now 2017-Feb-25 00:46 UTC.
Position N 39°49' W 075°22'.

Length 21 m; draft 3 m.

Type: Towing. MMSI: 366643140.

Date/timePositionNaut miles runAvg speedWind from/ knotsBaromVisibWave heightAir tempDewpointWater temp
2017-Feb-25 00:33N 39°49' W 075°22'0 0.0
2017-Feb-24 23:33N 39°49' W 075°22'0 0.0
2017-Feb-24 22:33N 39°49' W 075°22'1 1.1
2017-Feb-24 21:33N 39°50' W 075°21'3 2.7
2017-Feb-24 20:33N 39°51' W 075°18'0 0.1
2017-Feb-24 19:33N 39°51' W 075°18'0 0.1
2017-Feb-24 18:33N 39°51' W 075°18'0 0.0
2017-Feb-24 17:32N 39°51' W 075°18'0 0.0
2017-Feb-24 16:33N 39°51' W 075°18'0 0.1
2017-Feb-24 15:33N 39°51' W 075°18'0 0.0
2017-Feb-24 14:33N 39°51' W 075°18'0 0.0
2017-Feb-24 13:33N 39°51' W 075°18'0 0.0
2017-Feb-24 12:33N 39°51' W 075°18'0 0.0
2017-Feb-24 11:33N 39°51' W 075°18'0 0.0
2017-Feb-24 10:33N 39°51' W 075°18'0 0.0
2017-Feb-24 09:33N 39°51' W 075°18'0 0.0
2017-Feb-24 08:33N 39°51' W 075°18'0 0.0
2017-Feb-24 07:33N 39°51' W 075°18'0 0.0
2017-Feb-24 06:33N 39°51' W 075°18'0 0.0
2017-Feb-24 05:33N 39°51' W 075°18'0 0.0
2017-Feb-24 04:33N 39°51' W 075°18'0 0.0
2017-Feb-24 03:33N 39°51' W 075°18'0 0.0
2017-Feb-24 02:33N 39°51' W 075°18'3 2.9
2017-Feb-24 01:33N 39°52' W 075°14'6 6.4
2017-Feb-24 00:33N 39°56' W 075°08'1 1.3
2017-Feb-23 23:33N 39°57' W 075°08'0 0.0
2017-Feb-23 22:33N 39°57' W 075°08'0 0.0
2017-Feb-23 21:33N 39°57' W 075°08'5 5.5
2017-Feb-23 20:33N 39°53' W 075°12'8 7.6
2017-Feb-23 19:33N 39°51' W 075°21'0 0.4
2017-Feb-23 18:33N 39°51' W 075°21'2 2.2
2017-Feb-23 17:33N 39°51' W 075°18'0 0.0
2017-Feb-23 16:33N 39°51' W 075°18'0 0.1
2017-Feb-23 15:33N 39°51' W 075°18'0 0.0
2017-Feb-23 14:33N 39°51' W 075°18'0 0.0
2017-Feb-23 13:33N 39°51' W 075°18'0 0.2
2017-Feb-23 12:33N 39°51' W 075°18'0 0.1
2017-Feb-23 11:33N 39°51' W 075°18'0 0.0
2017-Feb-23 10:33N 39°51' W 075°18'0 0.0
2017-Feb-23 09:33N 39°51' W 075°18'0 0.0
2017-Feb-23 08:33N 39°51' W 075°18'0 0.0
2017-Feb-23 07:33N 39°51' W 075°18'0 0.0
2017-Feb-23 06:33N 39°51' W 075°18'0 0.0
2017-Feb-23 05:33N 39°51' W 075°18'0 0.0
2017-Feb-23 04:33N 39°51' W 075°18'0 0.0
2017-Feb-23 03:33N 39°51' W 075°18'3 3.3
2017-Feb-23 02:33N 39°50' W 075°22'0 0.1
2017-Feb-23 01:33N 39°49' W 075°22'3 3.2
2017-Feb-23 00:33N 39°51' W 075°18'4 3.7
2017-Feb-22 23:33N 39°52' W 075°13'7 6.8
2017-Feb-22 22:33N 39°57' W 075°08'1 1.2
2017-Feb-22 21:33N 39°56' W 075°08'4 4.0
2017-Feb-22 20:33N 39°53' W 075°11'5 4.9
2017-Feb-22 19:33N 39°51' W 075°17'1 0.7
2017-Feb-22 18:33N 39°51' W 075°18'0 0.1
2017-Feb-22 17:33N 39°51' W 075°18'0 0.0
2017-Feb-22 16:33N 39°51' W 075°18'0 0.1
2017-Feb-22 15:33N 39°51' W 075°18'0 0.0
2017-Feb-22 14:33N 39°51' W 075°18'0 0.0
2017-Feb-22 13:33N 39°51' W 075°18'1 1.1
2017-Feb-22 12:33N 39°51' W 075°19'2 2.4
2017-Feb-22 11:33N 39°50' W 075°22'0 0.0
2017-Feb-22 10:33N 39°50' W 075°22'0 0.0
2017-Feb-22 09:33N 39°50' W 075°22'0 0.0
2017-Feb-22 08:33N 39°50' W 075°22'0 0.0
2017-Feb-22 07:33N 39°50' W 075°22'0 0.0
2017-Feb-22 06:33N 39°50' W 075°22'0 0.0
2017-Feb-22 05:33N 39°50' W 075°22'0 0.0
2017-Feb-22 04:33N 39°50' W 075°22'0 0.0
2017-Feb-22 03:33N 39°50' W 075°22'0 0.0
2017-Feb-22 02:33N 39°50' W 075°22'0 0.0
2017-Feb-22 01:33N 39°50' W 075°22'0 0.0
2017-Feb-22 00:33N 39°50' W 075°22'0 0.0
2017-Feb-21 23:33N 39°50' W 075°22'0 0.2
2017-Feb-21 22:33N 39°49' W 075°22'2 1.9
2017-Feb-21 21:33N 39°51' W 075°20'2 1.8
2017-Feb-21 20:33N 39°51' W 075°18'0 0.0
2017-Feb-21 19:33N 39°51' W 075°18'0 0.1
2017-Feb-21 18:34N 39°51' W 075°18'0 0.0
2017-Feb-21 17:33N 39°51' W 075°18'8 7.8
2017-Feb-21 16:33N 39°54' W 075°08'4 3.8
2017-Feb-21 15:33N 39°57' W 075°08'8 7.8
2017-Feb-21 14:33N 39°51' W 075°14'3 2.7
2017-Feb-21 13:33N 39°51' W 075°18'0 0.1
2017-Feb-21 12:33N 39°51' W 075°18'0 0.1
2017-Feb-21 11:33N 39°51' W 075°18'0 0.0
2017-Feb-21 10:33N 39°51' W 075°18'0 0.0
2017-Feb-21 09:33N 39°51' W 075°18'0 0.0
2017-Feb-21 08:27N 39°51' W 075°18'0 0.0
2017-Feb-21 07:06N 39°51' W 075°18'0 0.0
2017-Feb-21 05:22N 39°51' W 075°18'0 0.0
2017-Feb-21 04:31N 39°51' W 075°18'0 0.0
2017-Feb-21 03:33N 39°51' W 075°18'0 0.0
2017-Feb-21 02:33N 39°51' W 075°18'0 0.0
2017-Feb-21 01:32N 39°51' W 075°18'0 0.0
2017-Feb-21 00:33N 39°51' W 075°18'0 0.0
2017-Feb-20 23:33N 39°51' W 075°18'0 0.0
2017-Feb-20 22:33N 39°51' W 075°18'0 0.0
2017-Feb-20 21:33N 39°51' W 075°18'0 0.0
2017-Feb-20 20:10N 39°51' W 075°18'0 0.0
2017-Feb-20 19:30N 39°51' W 075°18'0 0.0
2017-Feb-20 18:33N 39°51' W 075°18'0 0.0
2017-Feb-20 16:25N 39°51' W 075°18'0 0.0
2017-Feb-20 15:30N 39°51' W 075°18'0 0.0
2017-Feb-20 14:33N 39°51' W 075°18'0 0.0
2017-Feb-20 13:31N 39°51' W 075°18'0 0.0
2017-Feb-20 12:33N 39°51' W 075°18'0 0.0
2017-Feb-20 11:32N 39°51' W 075°18'0 0.0
2017-Feb-20 10:31N 39°51' W 075°18'0 0.0
2017-Feb-20 09:33N 39°51' W 075°18'0 0.0
2017-Feb-20 08:33N 39°51' W 075°18'0 0.0
2017-Feb-20 07:32N 39°51' W 075°18'0 0.0
2017-Feb-20 06:16N 39°51' W 075°18'0 0.0
2017-Feb-20 05:25N 39°51' W 075°18'0 0.0
2017-Feb-20 04:34N 39°51' W 075°18'0 0.0
2017-Feb-20 03:34N 39°51' W 075°18'0 0.0
2017-Feb-20 02:34N 39°51' W 075°18'0 0.0
2017-Feb-20 01:34N 39°51' W 075°18'0 0.0
2017-Feb-20 00:33N 39°51' W 075°18'0 0.0
2017-Feb-19 23:34N 39°51' W 075°18'0 0.2
2017-Feb-19 22:34N 39°51' W 075°18'3 3.2
2017-Feb-19 21:34N 39°49' W 075°22'0 0.1
2017-Feb-19 20:34N 39°49' W 075°22'0 0.0
2017-Feb-19 19:34N 39°49' W 075°22'0 0.1
2017-Feb-19 18:33N 39°49' W 075°22'0 0.0
2017-Feb-19 17:33N 39°49' W 075°22'0 0.0
2017-Feb-19 16:33N 39°49' W 075°22'0 0.0
2017-Feb-19 15:33N 39°49' W 075°22'3 3.3
2017-Feb-19 14:34N 39°51' W 075°18'0 0.0
2017-Feb-19 13:34N 39°51' W 075°18'0 0.0
2017-Feb-19 12:33N 39°51' W 075°18'0 0.0
2017-Feb-19 11:34N 39°51' W 075°18'0 0.0
2017-Feb-19 10:34N 39°51' W 075°18'0 0.0
2017-Feb-19 09:33N 39°51' W 075°18'0 0.0
2017-Feb-19 08:34N 39°51' W 075°18'0 0.0
2017-Feb-19 07:34N 39°51' W 075°18'0 0.0
2017-Feb-19 06:34N 39°51' W 075°18'0 0.0
2017-Feb-19 05:34N 39°51' W 075°18'0 0.0
2017-Feb-19 04:34N 39°51' W 075°18'0 0.0
2017-Feb-19 03:34N 39°51' W 075°18'0 0.0
2017-Feb-19 02:34N 39°51' W 075°18'0 0.0
2017-Feb-19 01:33N 39°51' W 075°18'0 0.0
2017-Feb-19 00:34N 39°51' W 075°18'0 0.0
2017-Feb-18 23:34N 39°51' W 075°18'0 0.2
2017-Feb-18 22:34N 39°51' W 075°18'3 3.4
2017-Feb-18 21:34N 39°50' W 075°22'2 1.8
2017-Feb-18 20:33N 39°51' W 075°20'2 2.0
2017-Feb-18 19:34N 39°51' W 075°18'0 0.2
2017-Feb-18 18:34N 39°51' W 075°18'0 0.2
2017-Feb-18 17:34N 39°51' W 075°18'0 0.0
2017-Feb-18 16:33N 39°51' W 075°18'0 0.1
2017-Feb-18 15:33N 39°51' W 075°18'0 0.0
2017-Feb-18 14:33N 39°51' W 075°18'0 0.0
2017-Feb-18 13:34N 39°51' W 075°18'0 0.0
2017-Feb-18 12:34N 39°51' W 075°18'0 0.1
2017-Feb-18 11:34N 39°51' W 075°18'0 0.0
2017-Feb-18 10:34N 39°51' W 075°18'0 0.0
2017-Feb-18 09:34N 39°51' W 075°18'0 0.0
2017-Feb-18 08:34N 39°51' W 075°18'0 0.0
2017-Feb-18 07:33N 39°51' W 075°18'0 0.0
2017-Feb-18 06:34N 39°51' W 075°18'0 0.0
2017-Feb-18 05:28N 39°51' W 075°18'0 0.0
2017-Feb-18 04:34N 39°51' W 075°18'0 0.0
2017-Feb-18 03:34N 39°51' W 075°18'0 0.0
2017-Feb-18 02:34N 39°51' W 075°18'0 0.0
2017-Feb-18 01:34N 39°51' W 075°18'1 1.4
2017-Feb-18 00:34N 39°51' W 075°19'2 2.2
2017-Feb-17 23:33N 39°50' W 075°22'0 0.2
2017-Feb-17 22:33N 39°50' W 075°22'3 3.5
2017-Feb-17 21:34N 39°51' W 075°18'0 0.0
2017-Feb-17 20:34N 39°51' W 075°18'0 0.0
2017-Feb-17 19:34N 39°51' W 075°18'0 0.0
2017-Feb-17 18:34N 39°51' W 075°18'0 0.0
2017-Feb-17 17:33N 39°51' W 075°18'0 0.2
2017-Feb-17 16:34N 39°51' W 075°18'0 0.2
2017-Feb-17 15:34N 39°51' W 075°18'0 0.0
2017-Feb-17 14:34N 39°51' W 075°18'0 0.1
2017-Feb-17 13:34N 39°51' W 075°18'0 0.0
2017-Feb-17 12:34N 39°51' W 075°18'0 0.1
2017-Feb-17 11:34N 39°51' W 075°18'0 0.0
2017-Feb-17 10:33N 39°51' W 075°18'0 0.0
2017-Feb-17 09:34N 39°51' W 075°18'0 0.0
2017-Feb-17 08:34N 39°51' W 075°18'0 0.0
2017-Feb-17 07:34N 39°51' W 075°18'0 0.0
2017-Feb-17 06:33N 39°51' W 075°18'0 0.0
2017-Feb-17 05:34N 39°51' W 075°18'0 0.0
2017-Feb-17 04:33N 39°51' W 075°18'0 0.0
2017-Feb-17 03:34N 39°51' W 075°18'0 0.0
2017-Feb-17 02:34N 39°51' W 075°18'0 0.0
2017-Feb-17 01:34N 39°51' W 075°18'2 2.3
2017-Feb-17 00:34N 39°51' W 075°21'1 1.3
2017-Feb-16 23:34N 39°50' W 075°22'3 3.4
2017-Feb-16 22:34N 39°51' W 075°18'3 3.0
2017-Feb-16 21:34N 39°52' W 075°14'5 4.5
2017-Feb-16 20:34N 39°53' W 075°08'4 4.2
2017-Feb-16 19:34N 39°57' W 075°08'1 0.6
2017-Feb-16 18:34N 39°57' W 075°08'7 7.4
2017-Feb-16 17:34N 39°51' W 075°14'3 2.5
2017-Feb-16 16:34N 39°51' W 075°18'0 0.2
2017-Feb-16 15:34N 39°51' W 075°18'0 0.2
2017-Feb-16 14:33N 39°51' W 075°18'0 0.1
2017-Feb-16 13:34N 39°51' W 075°18'0 0.0
2017-Feb-16 12:34N 39°51' W 075°18'0 0.0
2017-Feb-16 11:33N 39°51' W 075°18'0 0.0
2017-Feb-16 10:34N 39°51' W 075°18'0 0.0
2017-Feb-16 09:34N 39°51' W 075°18'0 0.0
2017-Feb-16 08:34N 39°51' W 075°18'0 0.0
2017-Feb-16 07:34N 39°51' W 075°18'0 0.0
2017-Feb-16 06:34N 39°51' W 075°18'0 0.0
2017-Feb-16 05:33N 39°51' W 075°18'0 0.0
2017-Feb-16 04:34N 39°51' W 075°18'0 0.0
2017-Feb-16 03:34N 39°51' W 075°18'0 0.0
2017-Feb-16 02:34N 39°51' W 075°18'8 8.5
2017-Feb-16 01:34N 39°55' W 075°08'3 2.8
2017-Feb-16 00:34N 39°57' W 075°08'5 4.5
2017-Feb-15 23:34N 39°53' W 075°09'6 5.6
2017-Feb-15 22:34N 39°51' W 075°16'5 4.8
2017-Feb-15 21:33N 39°49' W 075°22'2 1.6
2017-Feb-15 20:34N 39°51' W 075°20'2 2.1
2017-Feb-15 19:33N 39°51' W 075°18'0 0.1
2017-Feb-15 18:34N 39°51' W 075°18'0 0.1
2017-Feb-15 17:33N 39°51' W 075°18'0 0.0
2017-Feb-15 16:33N 39°51' W 075°18'0 0.0
2017-Feb-15 15:34N 39°51' W 075°18'0 0.1
2017-Feb-15 14:33N 39°51' W 075°18'0 0.0
2017-Feb-15 13:33N 39°51' W 075°18'0 0.0
2017-Feb-15 12:34N 39°51' W 075°18'0 0.0
2017-Feb-15 11:34N 39°51' W 075°18'0 0.0
2017-Feb-15 10:34N 39°51' W 075°18'0 0.0
2017-Feb-15 09:34N 39°51' W 075°18'0 0.0
2017-Feb-15 08:34N 39°51' W 075°18'0 0.0
2017-Feb-15 07:34N 39°51' W 075°18'0 0.0
2017-Feb-15 06:34N 39°51' W 075°18'0 0.0
2017-Feb-15 05:34N 39°51' W 075°18'0 0.0
2017-Feb-15 04:33N 39°51' W 075°18'0 0.0
2017-Feb-15 03:33N 39°51' W 075°18'0 0.0
2017-Feb-15 02:33N 39°51' W 075°18'0 0.0
2017-Feb-15 01:34N 39°51' W 075°18'0 0.0
2017-Feb-15 00:34N 39°51' W 075°18'  
Track history (hours):
 
Tides and Currents Weather Stations Pressure Air Temp Water Temp Dewpoint Dewpoint Depression Visibility Wind Speed Wind Dir Waves Ship Positions

Tug "trevor"

Owner: WEEKS MARINE, INC., CRANFORD, NJ. More information available from US FCC via Universal Licensing System and Coast Guard Vessel Documentation Center.

Last reported at 2017-Feb-25 00:33 UTC. Time now 2017-Feb-25 00:46 UTC.
Position N 39°49' W 075°22'.

Length 21 m; draft 3 m.

Type: Towing. MMSI: 366643140.

Date/timePositionNaut miles runAvg speedWind from/ knotsBaromVisibWave heightAir tempDewpointWater temp
2017-Feb-25 00:33N 39°49' W 075°22'0 0.0
2017-Feb-24 23:33N 39°49' W 075°22'0 0.0
2017-Feb-24 22:33N 39°49' W 075°22'1 1.1
2017-Feb-24 21:33N 39°50' W 075°21'3 2.7
2017-Feb-24 20:33N 39°51' W 075°18'0 0.1
2017-Feb-24 19:33N 39°51' W 075°18'0 0.1
2017-Feb-24 18:33N 39°51' W 075°18'0 0.0
2017-Feb-24 17:32N 39°51' W 075°18'0 0.0
2017-Feb-24 16:33N 39°51' W 075°18'0 0.1
2017-Feb-24 15:33N 39°51' W 075°18'0 0.0
2017-Feb-24 14:33N 39°51' W 075°18'0 0.0
2017-Feb-24 13:33N 39°51' W 075°18'0 0.0
2017-Feb-24 12:33N 39°51' W 075°18'0 0.0
2017-Feb-24 11:33N 39°51' W 075°18'0 0.0
2017-Feb-24 10:33N 39°51' W 075°18'0 0.0
2017-Feb-24 09:33N 39°51' W 075°18'0 0.0
2017-Feb-24 08:33N 39°51' W 075°18'0 0.0
2017-Feb-24 07:33N 39°51' W 075°18'0 0.0
2017-Feb-24 06:33N 39°51' W 075°18'0 0.0
2017-Feb-24 05:33N 39°51' W 075°18'0 0.0
2017-Feb-24 04:33N 39°51' W 075°18'0 0.0
2017-Feb-24 03:33N 39°51' W 075°18'0 0.0
2017-Feb-24 02:33N 39°51' W 075°18'3 2.9
2017-Feb-24 01:33N 39°52' W 075°14'6 6.4
2017-Feb-24 00:33N 39°56' W 075°08'1 1.3
2017-Feb-23 23:33N 39°57' W 075°08'0 0.0
2017-Feb-23 22:33N 39°57' W 075°08'0 0.0
2017-Feb-23 21:33N 39°57' W 075°08'5 5.5
2017-Feb-23 20:33N 39°53' W 075°12'8 7.6
2017-Feb-23 19:33N 39°51' W 075°21'0 0.4
2017-Feb-23 18:33N 39°51' W 075°21'2 2.2
2017-Feb-23 17:33N 39°51' W 075°18'0 0.0
2017-Feb-23 16:33N 39°51' W 075°18'0 0.1
2017-Feb-23 15:33N 39°51' W 075°18'0 0.0
2017-Feb-23 14:33N 39°51' W 075°18'0 0.0
2017-Feb-23 13:33N 39°51' W 075°18'0 0.2
2017-Feb-23 12:33N 39°51' W 075°18'0 0.1
2017-Feb-23 11:33N 39°51' W 075°18'0 0.0
2017-Feb-23 10:33N 39°51' W 075°18'0 0.0
2017-Feb-23 09:33N 39°51' W 075°18'0 0.0
2017-Feb-23 08:33N 39°51' W 075°18'0 0.0
2017-Feb-23 07:33N 39°51' W 075°18'0 0.0
2017-Feb-23 06:33N 39°51' W 075°18'0 0.0
2017-Feb-23 05:33N 39°51' W 075°18'0 0.0
2017-Feb-23 04:33N 39°51' W 075°18'0 0.0
2017-Feb-23 03:33N 39°51' W 075°18'3 3.3
2017-Feb-23 02:33N 39°50' W 075°22'0 0.1
2017-Feb-23 01:33N 39°49' W 075°22'3 3.2
2017-Feb-23 00:33N 39°51' W 075°18'4 3.7
2017-Feb-22 23:33N 39°52' W 075°13'7 6.8
2017-Feb-22 22:33N 39°57' W 075°08'1 1.2
2017-Feb-22 21:33N 39°56' W 075°08'4 4.0
2017-Feb-22 20:33N 39°53' W 075°11'5 4.9
2017-Feb-22 19:33N 39°51' W 075°17'1 0.7
2017-Feb-22 18:33N 39°51' W 075°18'0 0.1
2017-Feb-22 17:33N 39°51' W 075°18'0 0.0
2017-Feb-22 16:33N 39°51' W 075°18'0 0.1
2017-Feb-22 15:33N 39°51' W 075°18'0 0.0
2017-Feb-22 14:33N 39°51' W 075°18'0 0.0
2017-Feb-22 13:33N 39°51' W 075°18'1 1.1
2017-Feb-22 12:33N 39°51' W 075°19'2 2.4
2017-Feb-22 11:33N 39°50' W 075°22'0 0.0
2017-Feb-22 10:33N 39°50' W 075°22'0 0.0
2017-Feb-22 09:33N 39°50' W 075°22'0 0.0
2017-Feb-22 08:33N 39°50' W 075°22'0 0.0
2017-Feb-22 07:33N 39°50' W 075°22'0 0.0
2017-Feb-22 06:33N 39°50' W 075°22'0 0.0
2017-Feb-22 05:33N 39°50' W 075°22'0 0.0
2017-Feb-22 04:33N 39°50' W 075°22'0 0.0
2017-Feb-22 03:33N 39°50' W 075°22'0 0.0
2017-Feb-22 02:33N 39°50' W 075°22'0 0.0
2017-Feb-22 01:33N 39°50' W 075°22'0 0.0
2017-Feb-22 00:33N 39°50' W 075°22'0 0.0
2017-Feb-21 23:33N 39°50' W 075°22'0 0.2
2017-Feb-21 22:33N 39°49' W 075°22'2 1.9
2017-Feb-21 21:33N 39°51' W 075°20'2 1.8
2017-Feb-21 20:33N 39°51' W 075°18'0 0.0
2017-Feb-21 19:33N 39°51' W 075°18'0 0.1
2017-Feb-21 18:34N 39°51' W 075°18'0 0.0
2017-Feb-21 17:33N 39°51' W 075°18'8 7.8
2017-Feb-21 16:33N 39°54' W 075°08'4 3.8
2017-Feb-21 15:33N 39°57' W 075°08'8 7.8
2017-Feb-21 14:33N 39°51' W 075°14'3 2.7
2017-Feb-21 13:33N 39°51' W 075°18'0 0.1
2017-Feb-21 12:33N 39°51' W 075°18'0 0.1
2017-Feb-21 11:33N 39°51' W 075°18'0 0.0
2017-Feb-21 10:33N 39°51' W 075°18'0 0.0
2017-Feb-21 09:33N 39°51' W 075°18'0 0.0
2017-Feb-21 08:27N 39°51' W 075°18'0 0.0
2017-Feb-21 07:06N 39°51' W 075°18'0 0.0
2017-Feb-21 05:22N 39°51' W 075°18'0 0.0
2017-Feb-21 04:31N 39°51' W 075°18'0 0.0
2017-Feb-21 03:33N 39°51' W 075°18'0 0.0
2017-Feb-21 02:33N 39°51' W 075°18'0 0.0
2017-Feb-21 01:32N 39°51' W 075°18'0 0.0
2017-Feb-21 00:33N 39°51' W 075°18'0 0.0
2017-Feb-20 23:33N 39°51' W 075°18'0 0.0
2017-Feb-20 22:33N 39°51' W 075°18'0 0.0
2017-Feb-20 21:33N 39°51' W 075°18'0 0.0
2017-Feb-20 20:10N 39°51' W 075°18'0 0.0
2017-Feb-20 19:30N 39°51' W 075°18'0 0.0
2017-Feb-20 18:33N 39°51' W 075°18'0 0.0
2017-Feb-20 16:25N 39°51' W 075°18'0 0.0
2017-Feb-20 15:30N 39°51' W 075°18'0 0.0
2017-Feb-20 14:33N 39°51' W 075°18'0 0.0
2017-Feb-20 13:31N 39°51' W 075°18'0 0.0
2017-Feb-20 12:33N 39°51' W 075°18'0 0.0
2017-Feb-20 11:32N 39°51' W 075°18'0 0.0
2017-Feb-20 10:31N 39°51' W 075°18'0 0.0
2017-Feb-20 09:33N 39°51' W 075°18'0 0.0
2017-Feb-20 08:33N 39°51' W 075°18'0 0.0
2017-Feb-20 07:32N 39°51' W 075°18'0 0.0
2017-Feb-20 06:16N 39°51' W 075°18'0 0.0
2017-Feb-20 05:25N 39°51' W 075°18'0 0.0
2017-Feb-20 04:34N 39°51' W 075°18'0 0.0
2017-Feb-20 03:34N 39°51' W 075°18'0 0.0
2017-Feb-20 02:34N 39°51' W 075°18'0 0.0
2017-Feb-20 01:34N 39°51' W 075°18'0 0.0
2017-Feb-20 00:33N 39°51' W 075°18'0 0.0
2017-Feb-19 23:34N 39°51' W 075°18'0 0.2
2017-Feb-19 22:34N 39°51' W 075°18'3 3.2
2017-Feb-19 21:34N 39°49' W 075°22'0 0.1
2017-Feb-19 20:34N 39°49' W 075°22'0 0.0
2017-Feb-19 19:34N 39°49' W 075°22'0 0.1
2017-Feb-19 18:33N 39°49' W 075°22'0 0.0
2017-Feb-19 17:33N 39°49' W 075°22'0 0.0
2017-Feb-19 16:33N 39°49' W 075°22'0 0.0
2017-Feb-19 15:33N 39°49' W 075°22'3 3.3
2017-Feb-19 14:34N 39°51' W 075°18'0 0.0
2017-Feb-19 13:34N 39°51' W 075°18'0 0.0
2017-Feb-19 12:33N 39°51' W 075°18'0 0.0
2017-Feb-19 11:34N 39°51' W 075°18'0 0.0
2017-Feb-19 10:34N 39°51' W 075°18'0 0.0
2017-Feb-19 09:33N 39°51' W 075°18'0 0.0
2017-Feb-19 08:34N 39°51' W 075°18'0 0.0
2017-Feb-19 07:34N 39°51' W 075°18'0 0.0
2017-Feb-19 06:34N 39°51' W 075°18'0 0.0
2017-Feb-19 05:34N 39°51' W 075°18'0 0.0
2017-Feb-19 04:34N 39°51' W 075°18'0 0.0
2017-Feb-19 03:34N 39°51' W 075°18'0 0.0
2017-Feb-19 02:34N 39°51' W 075°18'0 0.0
2017-Feb-19 01:33N 39°51' W 075°18'0 0.0
2017-Feb-19 00:34N 39°51' W 075°18'0 0.0
2017-Feb-18 23:34N 39°51' W 075°18'0 0.2
2017-Feb-18 22:34N 39°51' W 075°18'3 3.4
2017-Feb-18 21:34N 39°50' W 075°22'2 1.8
2017-Feb-18 20:33N 39°51' W 075°20'2 2.0
2017-Feb-18 19:34N 39°51' W 075°18'0 0.2
2017-Feb-18 18:34N 39°51' W 075°18'0 0.2
2017-Feb-18 17:34N 39°51' W 075°18'0 0.0
2017-Feb-18 16:33N 39°51' W 075°18'0 0.1
2017-Feb-18 15:33N 39°51' W 075°18'0 0.0
2017-Feb-18 14:33N 39°51' W 075°18'0 0.0
2017-Feb-18 13:34N 39°51' W 075°18'0 0.0
2017-Feb-18 12:34N 39°51' W 075°18'0 0.1
2017-Feb-18 11:34N 39°51' W 075°18'0 0.0
2017-Feb-18 10:34N 39°51' W 075°18'0 0.0
2017-Feb-18 09:34N 39°51' W 075°18'0 0.0
2017-Feb-18 08:34N 39°51' W 075°18'0 0.0
2017-Feb-18 07:33N 39°51' W 075°18'0 0.0
2017-Feb-18 06:34N 39°51' W 075°18'0 0.0
2017-Feb-18 05:28N 39°51' W 075°18'0 0.0
2017-Feb-18 04:34N 39°51' W 075°18'0 0.0
2017-Feb-18 03:34N 39°51' W 075°18'0 0.0
2017-Feb-18 02:34N 39°51' W 075°18'0 0.0
2017-Feb-18 01:34N 39°51' W 075°18'1 1.4
2017-Feb-18 00:34N 39°51' W 075°19'2 2.2
2017-Feb-17 23:33N 39°50' W 075°22'0 0.2
2017-Feb-17 22:33N 39°50' W 075°22'3 3.5
2017-Feb-17 21:34N 39°51' W 075°18'0 0.0
2017-Feb-17 20:34N 39°51' W 075°18'0 0.0
2017-Feb-17 19:34N 39°51' W 075°18'0 0.0
2017-Feb-17 18:34N 39°51' W 075°18'0 0.0
2017-Feb-17 17:33N 39°51' W 075°18'0 0.2
2017-Feb-17 16:34N 39°51' W 075°18'0 0.2
2017-Feb-17 15:34N 39°51' W 075°18'0 0.0
2017-Feb-17 14:34N 39°51' W 075°18'0 0.1
2017-Feb-17 13:34N 39°51' W 075°18'0 0.0
2017-Feb-17 12:34N 39°51' W 075°18'0 0.1
2017-Feb-17 11:34N 39°51' W 075°18'0 0.0
2017-Feb-17 10:33N 39°51' W 075°18'0 0.0
2017-Feb-17 09:34N 39°51' W 075°18'0 0.0
2017-Feb-17 08:34N 39°51' W 075°18'0 0.0
2017-Feb-17 07:34N 39°51' W 075°18'0 0.0
2017-Feb-17 06:33N 39°51' W 075°18'0 0.0
2017-Feb-17 05:34N 39°51' W 075°18'0 0.0
2017-Feb-17 04:33N 39°51' W 075°18'0 0.0
2017-Feb-17 03:34N 39°51' W 075°18'0 0.0
2017-Feb-17 02:34N 39°51' W 075°18'0 0.0
2017-Feb-17 01:34N 39°51' W 075°18'2 2.3
2017-Feb-17 00:34N 39°51' W 075°21'1 1.3
2017-Feb-16 23:34N 39°50' W 075°22'3 3.4
2017-Feb-16 22:34N 39°51' W 075°18'3 3.0
2017-Feb-16 21:34N 39°52' W 075°14'5 4.5
2017-Feb-16 20:34N 39°53' W 075°08'4 4.2
2017-Feb-16 19:34N 39°57' W 075°08'1 0.6
2017-Feb-16 18:34N 39°57' W 075°08'7 7.4
2017-Feb-16 17:34N 39°51' W 075°14'3 2.5
2017-Feb-16 16:34N 39°51' W 075°18'0 0.2
2017-Feb-16 15:34N 39°51' W 075°18'0 0.2
2017-Feb-16 14:33N 39°51' W 075°18'0 0.1
2017-Feb-16 13:34N 39°51' W 075°18'0 0.0
2017-Feb-16 12:34N 39°51' W 075°18'0 0.0
2017-Feb-16 11:33N 39°51' W 075°18'0 0.0
2017-Feb-16 10:34N 39°51' W 075°18'0 0.0
2017-Feb-16 09:34N 39°51' W 075°18'0 0.0
2017-Feb-16 08:34N 39°51' W 075°18'0 0.0
2017-Feb-16 07:34N 39°51' W 075°18'0 0.0
2017-Feb-16 06:34N 39°51' W 075°18'0 0.0
2017-Feb-16 05:33N 39°51' W 075°18'0 0.0
2017-Feb-16 04:34N 39°51' W 075°18'0 0.0
2017-Feb-16 03:34N 39°51' W 075°18'0 0.0
2017-Feb-16 02:34N 39°51' W 075°18'8 8.5
2017-Feb-16 01:34N 39°55' W 075°08'3 2.8
2017-Feb-16 00:34N 39°57' W 075°08'5 4.5
2017-Feb-15 23:34N 39°53' W 075°09'6 5.6
2017-Feb-15 22:34N 39°51' W 075°16'5 4.8
2017-Feb-15 21:33N 39°49' W 075°22'2 1.6
2017-Feb-15 20:34N 39°51' W 075°20'2 2.1
2017-Feb-15 19:33N 39°51' W 075°18'0 0.1
2017-Feb-15 18:34N 39°51' W 075°18'0 0.1
2017-Feb-15 17:33N 39°51' W 075°18'0 0.0
2017-Feb-15 16:33N 39°51' W 075°18'0 0.0
2017-Feb-15 15:34N 39°51' W 075°18'0 0.1
2017-Feb-15 14:33N 39°51' W 075°18'0 0.0
2017-Feb-15 13:33N 39°51' W 075°18'0 0.0
2017-Feb-15 12:34N 39°51' W 075°18'0 0.0
2017-Feb-15 11:34N 39°51' W 075°18'0 0.0
2017-Feb-15 10:34N 39°51' W 075°18'0 0.0
2017-Feb-15 09:34N 39°51' W 075°18'0 0.0
2017-Feb-15 08:34N 39°51' W 075°18'0 0.0
2017-Feb-15 07:34N 39°51' W 075°18'0 0.0
2017-Feb-15 06:34N 39°51' W 075°18'0 0.0
2017-Feb-15 05:34N 39°51' W 075°18'0 0.0
2017-Feb-15 04:33N 39°51' W 075°18'0 0.0
2017-Feb-15 03:33N 39°51' W 075°18'0 0.0
2017-Feb-15 02:33N 39°51' W 075°18'0 0.0
2017-Feb-15 01:34N 39°51' W 075°18'0 0.0
2017-Feb-15 00:34N 39°51' W 075°18'  

Dump ship's entire track history